sensor_id;sensor_type;location;lat;lon;timestamp;P1;durP1;ratioP1;P2;durP2;ratioP2
14153;SDS011;7157;53.144;7.570;2024-01-25T00:00:56;19.25;;;2.75;;
14153;SDS011;7157;53.144;7.570;2024-01-25T00:10:59;25.75;;;3.65;;
14153;SDS011;7157;53.144;7.570;2024-01-25T00:21:04;23.33;;;3.00;;
14153;SDS011;7157;53.144;7.570;2024-01-25T00:31:07;17.88;;;2.92;;
14153;SDS011;7157;53.144;7.570;2024-01-25T00:41:11;17.27;;;2.33;;
14153;SDS011;7157;53.144;7.570;2024-01-25T00:51:21;26.73;;;3.10;;
14153;SDS011;7157;53.144;7.570;2024-01-25T01:01:26;23.27;;;3.50;;
14153;SDS011;7157;53.144;7.570;2024-01-25T01:11:30;20.30;;;3.25;;
14153;SDS011;7157;53.144;7.570;2024-01-25T01:21:34;16.33;;;3.13;;
14153;SDS011;7157;53.144;7.570;2024-01-25T01:31:37;13.90;;;1.88;;
14153;SDS011;7157;53.144;7.570;2024-01-25T01:41:42;14.68;;;2.70;;
14153;SDS011;7157;53.144;7.570;2024-01-25T01:51:49;24.58;;;2.85;;
14153;SDS011;7157;53.144;7.570;2024-01-25T02:01:53;18.45;;;2.95;;
14153;SDS011;7157;53.144;7.570;2024-01-25T02:12:00;21.17;;;3.15;;
14153;SDS011;7157;53.144;7.570;2024-01-25T02:22:05;18.83;;;2.80;;
14153;SDS011;7157;53.144;7.570;2024-01-25T02:32:10;21.27;;;3.42;;
14153;SDS011;7157;53.144;7.570;2024-01-25T02:42:13;24.63;;;3.88;;
14153;SDS011;7157;53.144;7.570;2024-01-25T02:52:19;17.17;;;2.58;;
14153;SDS011;7157;53.144;7.570;2024-01-25T03:02:22;29.90;;;4.45;;
14153;SDS011;7157;53.144;7.570;2024-01-25T03:12:27;21.00;;;3.10;;
14153;SDS011;7157;53.144;7.570;2024-01-25T03:22:30;24.25;;;3.72;;
14153;SDS011;7157;53.144;7.570;2024-01-25T03:32:35;23.55;;;3.20;;
14153;SDS011;7157;53.144;7.570;2024-01-25T03:42:39;23.70;;;3.75;;
14153;SDS011;7157;53.144;7.570;2024-01-25T03:52:46;25.67;;;3.58;;
14153;SDS011;7157;53.144;7.570;2024-01-25T04:02:50;21.73;;;3.92;;
14153;SDS011;7157;53.144;7.570;2024-01-25T04:12:54;18.55;;;3.45;;
14153;SDS011;7157;53.144;7.570;2024-01-25T04:22:58;34.92;;;4.30;;
14153;SDS011;7157;53.144;7.570;2024-01-25T04:33:04;15.82;;;3.45;;
14153;SDS011;7157;53.144;7.570;2024-01-25T04:43:08;24.77;;;2.55;;
14153;SDS011;7157;53.144;7.570;2024-01-25T04:53:15;17.70;;;3.35;;
14153;SDS011;7157;53.144;7.570;2024-01-25T05:03:18;20.73;;;3.58;;
14153;SDS011;7157;53.144;7.570;2024-01-25T05:13:23;24.25;;;3.47;;
14153;SDS011;7157;53.144;7.570;2024-01-25T05:23:26;20.40;;;3.72;;
14153;SDS011;7157;53.144;7.570;2024-01-25T05:33:30;39.75;;;2.80;;
14153;SDS011;7157;53.144;7.570;2024-01-25T05:43:33;18.98;;;3.30;;
14153;SDS011;7157;53.144;7.570;2024-01-25T05:53:38;20.13;;;2.75;;
14153;SDS011;7157;53.144;7.570;2024-01-25T06:03:40;31.95;;;5.00;;
14153;SDS011;7157;53.144;7.570;2024-01-25T06:13:45;17.65;;;2.42;;
14153;SDS011;7157;53.144;7.570;2024-01-25T06:23:49;19.30;;;3.58;;
14153;SDS011;7157;53.144;7.570;2024-01-25T06:33:53;25.45;;;3.97;;
14153;SDS011;7157;53.144;7.570;2024-01-25T06:43:56;19.67;;;2.60;;
14153;SDS011;7157;53.144;7.570;2024-01-25T06:54:00;15.02;;;2.65;;
14153;SDS011;7157;53.144;7.570;2024-01-25T07:04:03;16.77;;;2.70;;
14153;SDS011;7157;53.144;7.570;2024-01-25T07:14:09;23.70;;;4.80;;
14153;SDS011;7157;53.144;7.570;2024-01-25T07:24:12;13.98;;;2.75;;
14153;SDS011;7157;53.144;7.570;2024-01-25T07:34:17;12.00;;;2.22;;
14153;SDS011;7157;53.144;7.570;2024-01-25T07:44:20;25.05;;;3.92;;
14153;SDS011;7157;53.144;7.570;2024-01-25T07:54:24;26.48;;;3.63;;
14153;SDS011;7157;53.144;7.570;2024-01-25T08:04:27;19.65;;;4.22;;
14153;SDS011;7157;53.144;7.570;2024-01-25T08:14:31;41.95;;;3.75;;
14153;SDS011;7157;53.144;7.570;2024-01-25T08:24:34;15.85;;;3.20;;
14153;SDS011;7157;53.144;7.570;2024-01-25T08:34:38;34.80;;;4.20;;
14153;SDS011;7157;53.144;7.570;2024-01-25T08:44:41;23.52;;;3.90;;
14153;SDS011;7157;53.144;7.570;2024-01-25T08:54:52;25.38;;;3.55;;
14153;SDS011;7157;53.144;7.570;2024-01-25T09:04:55;25.08;;;3.67;;
14153;SDS011;7157;53.144;7.570;2024-01-25T09:15:00;25.90;;;4.15;;
14153;SDS011;7157;53.144;7.570;2024-01-25T09:25:04;32.60;;;4.65;;
14153;SDS011;7157;53.144;7.570;2024-01-25T09:35:12;34.92;;;4.72;;
14153;SDS011;7157;53.144;7.570;2024-01-25T09:45:16;25.00;;;3.13;;
14153;SDS011;7157;53.144;7.570;2024-01-25T09:55:21;26.77;;;4.57;;
14153;SDS011;7157;53.144;7.570;2024-01-25T10:05:27;32.75;;;4.22;;
14153;SDS011;7157;53.144;7.570;2024-01-25T10:15:32;39.83;;;5.28;;
14153;SDS011;7157;53.144;7.570;2024-01-25T10:25:36;31.90;;;4.20;;
14153;SDS011;7157;53.144;7.570;2024-01-25T10:35:41;23.75;;;4.80;;
14153;SDS011;7157;53.144;7.570;2024-01-25T10:45:46;30.52;;;5.10;;
14153;SDS011;7157;53.144;7.570;2024-01-25T10:55:53;34.17;;;4.65;;
14153;SDS011;7157;53.144;7.570;2024-01-25T11:06:05;21.30;;;3.47;;
14153;SDS011;7157;53.144;7.570;2024-01-25T11:16:14;29.33;;;4.15;;
14153;SDS011;7157;53.144;7.570;2024-01-25T11:26:18;32.97;;;4.20;;
14153;SDS011;7157;53.144;7.570;2024-01-25T11:36:22;35.55;;;4.55;;
14153;SDS011;7157;53.144;7.570;2024-01-25T11:46:26;29.98;;;4.57;;
14153;SDS011;7157;53.144;7.570;2024-01-25T11:56:31;19.65;;;3.22;;
14153;SDS011;7157;53.144;7.570;2024-01-25T12:06:35;21.20;;;3.78;;
14153;SDS011;7157;53.144;7.570;2024-01-25T12:16:40;28.60;;;5.15;;
14153;SDS011;7157;53.144;7.570;2024-01-25T12:26:44;28.45;;;4.70;;
14153;SDS011;7157;53.144;7.570;2024-01-25T12:36:48;24.10;;;4.00;;
14153;SDS011;7157;53.144;7.570;2024-01-25T12:46:51;31.10;;;4.30;;
14153;SDS011;7157;53.144;7.570;2024-01-25T12:56:56;28.90;;;4.38;;
14153;SDS011;7157;53.144;7.570;2024-01-25T13:06:59;28.02;;;4.38;;
14153;SDS011;7157;53.144;7.570;2024-01-25T13:17:03;36.10;;;4.28;;
14153;SDS011;7157;53.144;7.570;2024-01-25T13:27:09;27.02;;;3.90;;
14153;SDS011;7157;53.144;7.570;2024-01-25T13:37:13;27.77;;;3.75;;
14153;SDS011;7157;53.144;7.570;2024-01-25T13:47:16;23.73;;;3.47;;
14153;SDS011;7157;53.144;7.570;2024-01-25T13:57:20;30.02;;;4.60;;
14153;SDS011;7157;53.144;7.570;2024-01-25T14:07:25;29.63;;;4.50;;
14153;SDS011;7157;53.144;7.570;2024-01-25T14:17:29;24.42;;;4.93;;
14153;SDS011;7157;53.144;7.570;2024-01-25T14:27:32;21.60;;;4.25;;
14153;SDS011;7157;53.144;7.570;2024-01-25T14:37:37;27.27;;;4.28;;
14153;SDS011;7157;53.144;7.570;2024-01-25T14:47:39;22.67;;;3.83;;
14153;SDS011;7157;53.144;7.570;2024-01-25T14:57:44;25.27;;;3.88;;
14153;SDS011;7157;53.144;7.570;2024-01-25T15:07:46;17.10;;;3.70;;
14153;SDS011;7157;53.144;7.570;2024-01-25T15:17:51;23.17;;;2.80;;
14153;SDS011;7157;53.144;7.570;2024-01-25T15:27:54;27.98;;;4.05;;
14153;SDS011;7157;53.144;7.570;2024-01-25T15:37:58;24.13;;;4.13;;
14153;SDS011;7157;53.144;7.570;2024-01-25T15:48:06;18.35;;;3.45;;
14153;SDS011;7157;53.144;7.570;2024-01-25T15:58:12;21.38;;;4.00;;
14153;SDS011;7157;53.144;7.570;2024-01-25T16:08:14;22.30;;;4.10;;
14153;SDS011;7157;53.144;7.570;2024-01-25T16:18:19;24.13;;;4.22;;
14153;SDS011;7157;53.144;7.570;2024-01-25T16:28:22;32.45;;;4.53;;
14153;SDS011;7157;53.144;7.570;2024-01-25T16:38:26;23.48;;;4.10;;
14153;SDS011;7157;53.144;7.570;2024-01-25T16:48:29;21.38;;;4.22;;
14153;SDS011;7157;53.144;7.570;2024-01-25T16:58:34;22.90;;;3.83;;
14153;SDS011;7157;53.144;7.570;2024-01-25T17:08:37;30.08;;;4.40;;
14153;SDS011;7157;53.144;7.570;2024-01-25T17:18:41;24.48;;;4.07;;
14153;SDS011;7157;53.144;7.570;2024-01-25T17:28:44;25.88;;;4.03;;
14153;SDS011;7157;53.144;7.570;2024-01-25T17:38:48;20.88;;;4.30;;
14153;SDS011;7157;53.144;7.570;2024-01-25T17:48:51;30.38;;;4.85;;
14153;SDS011;7157;53.144;7.570;2024-01-25T17:58:55;25.20;;;4.60;;
14153;SDS011;7157;53.144;7.570;2024-01-25T18:09:02;23.05;;;4.03;;
14153;SDS011;7157;53.144;7.570;2024-01-25T18:19:06;27.40;;;4.65;;
14153;SDS011;7157;53.144;7.570;2024-01-25T18:29:09;17.55;;;3.00;;
14153;SDS011;7157;53.144;7.570;2024-01-25T18:39:14;19.70;;;3.88;;
14153;SDS011;7157;53.144;7.570;2024-01-25T18:49:18;21.73;;;4.32;;
14153;SDS011;7157;53.144;7.570;2024-01-25T18:59:23;23.55;;;4.50;;
14153;SDS011;7157;53.144;7.570;2024-01-25T19:09:29;27.63;;;5.18;;
14153;SDS011;7157;53.144;7.570;2024-01-25T19:19:34;17.13;;;4.10;;
14153;SDS011;7157;53.144;7.570;2024-01-25T19:29:37;32.38;;;6.10;;
14153;SDS011;7157;53.144;7.570;2024-01-25T19:39:41;21.98;;;4.25;;
14153;SDS011;7157;53.144;7.570;2024-01-25T19:49:45;35.83;;;7.72;;
14153;SDS011;7157;53.144;7.570;2024-01-25T19:59:50;35.28;;;7.30;;
14153;SDS011;7157;53.144;7.570;2024-01-25T20:09:53;45.30;;;8.98;;
14153;SDS011;7157;53.144;7.570;2024-01-25T20:19:57;29.75;;;9.30;;
14153;SDS011;7157;53.144;7.570;2024-01-25T20:30:01;36.85;;;9.80;;
14153;SDS011;7157;53.144;7.570;2024-01-25T20:40:07;28.45;;;9.77;;
14153;SDS011;7157;53.144;7.570;2024-01-25T20:50:11;44.63;;;9.85;;
14153;SDS011;7157;53.144;7.570;2024-01-25T21:00:24;45.55;;;11.70;;
14153;SDS011;7157;53.144;7.570;2024-01-25T21:10:28;44.83;;;11.30;;
14153;SDS011;7157;53.144;7.570;2024-01-25T21:20:32;36.65;;;14.15;;
14153;SDS011;7157;53.144;7.570;2024-01-25T21:30:36;38.42;;;12.52;;
14153;SDS011;7157;53.144;7.570;2024-01-25T21:40:40;42.42;;;12.50;;
14153;SDS011;7157;53.144;7.570;2024-01-25T21:50:43;43.83;;;14.38;;
14153;SDS011;7157;53.144;7.570;2024-01-25T22:00:48;52.00;;;15.38;;
14153;SDS011;7157;53.144;7.570;2024-01-25T22:10:53;52.40;;;14.77;;
14153;SDS011;7157;53.144;7.570;2024-01-25T22:20:58;56.33;;;17.42;;
14153;SDS011;7157;53.144;7.570;2024-01-25T22:31:01;49.80;;;14.77;;
14153;SDS011;7157;53.144;7.570;2024-01-25T22:41:09;43.55;;;15.40;;
14153;SDS011;7157;53.144;7.570;2024-01-25T22:51:13;48.22;;;15.98;;
14153;SDS011;7157;53.144;7.570;2024-01-25T23:01:18;39.58;;;13.68;;
14153;SDS011;7157;53.144;7.570;2024-01-25T23:11:21;49.97;;;15.25;;
14153;SDS011;7157;53.144;7.570;2024-01-25T23:21:25;45.53;;;14.68;;
14153;SDS011;7157;53.144;7.570;2024-01-25T23:31:30;46.35;;;15.30;;
14153;SDS011;7157;53.144;7.570;2024-01-25T23:41:34;45.72;;;14.98;;
14153;SDS011;7157;53.144;7.570;2024-01-25T23:51:39;34.47;;;12.40;;
